Buchanan Airport

Jump to: basic info | weather | comments

Related pages: nearby airports | nearby navaids | notams | map

Basic information (top)

Codes: UCN GLBU
Location: lon 5.167650, lat -9.283470, elev 41 ft / 12 m msl
Status: small_airport
Scheduled airline service: no
Links: Wikipedia Mobile

Weather (top)

Current conditions for Roberts International Airport 91nm (168km) NW (rec'd 2015/03/30 17:00Z):

GLRB 301700Z 24007KT 9999 SCT016 FEW024 CB SCT100 29/25 Q1008 CB-N

Airport forecast for Roberts International Airport 91nm (168km) NW (rec'd 2015/03/28 00:51Z):

TAF GLRB 282200Z 2900/3006 22010KT 9999 BKN018 
      TEMPO 2901/2905 00000KT 9000 NSC 
      BECMG 2906/2908 04005KT 6000 SCT010 SCT100

Latest comments (top)

No comments yet for Buchanan Airport

More... (top)

See also NOTAMs and nearby airports and navaids, or visit the Buchanan Airport page at the main OurAirports website..